sensor_id;sensor_type;location;lat;lon;timestamp;P1;P2;P0
42410;PMS5003;28056;51.112;0.984;2023-04-29T00:04:47;48;36;
42410;PMS5003;28056;51.112;0.984;2023-04-29T00:07:14;39;36;
42410;PMS5003;28056;51.112;0.984;2023-04-29T00:09:41;40;37;
42410;PMS5003;28056;51.112;0.984;2023-04-29T00:12:08;37;34;
42410;PMS5003;28056;51.112;0.984;2023-04-29T00:14:35;35;32;
42410;PMS5003;28056;51.112;0.984;2023-04-29T00:17:03;39;34;
42410;PMS5003;28056;51.112;0.984;2023-04-29T00:19:30;37;31;
42410;PMS5003;28056;51.112;0.984;2023-04-29T00:21:57;38;33;
42410;PMS5003;28056;51.112;0.984;2023-04-29T00:24:24;38;34;
42410;PMS5003;28056;51.112;0.984;2023-04-29T00:26:51;48;32;
42410;PMS5003;28056;51.112;0.984;2023-04-29T00:29:19;41;35;
42410;PMS5003;28056;51.112;0.984;2023-04-29T00:31:46;38;35;
42410;PMS5003;28056;51.112;0.984;2023-04-29T00:34:14;35;32;
42410;PMS5003;28056;51.112;0.984;2023-04-29T00:36:41;42;38;
42410;PMS5003;28056;51.112;0.984;2023-04-29T00:39:08;40;35;
42410;PMS5003;28056;51.112;0.984;2023-04-29T00:41:36;48;43;
42410;PMS5003;28056;51.112;0.984;2023-04-29T00:44:04;39;33;
42410;PMS5003;28056;51.112;0.984;2023-04-29T00:46:32;33;30;
42410;PMS5003;28056;51.112;0.984;2023-04-29T00:48:58;34;33;
42410;PMS5003;28056;51.112;0.984;2023-04-29T00:51:27;43;34;
42410;PMS5003;28056;51.112;0.984;2023-04-29T00:53:55;44;32;
42410;PMS5003;28056;51.112;0.984;2023-04-29T00:56:23;34;33;
42410;PMS5003;28056;51.112;0.984;2023-04-29T00:58:49;41;35;
42410;PMS5003;28056;51.112;0.984;2023-04-29T01:01:17;35;30;
42410;PMS5003;28056;51.112;0.984;2023-04-29T01:03:45;33;30;
42410;PMS5003;28056;51.112;0.984;2023-04-29T01:06:22;34;29;
42410;PMS5003;28056;51.112;0.984;2023-04-29T01:09:02;33;32;
42410;PMS5003;28056;51.112;0.984;2023-04-29T01:11:45;37;32;
42410;PMS5003;28056;51.112;0.984;2023-04-29T01:14:20;35;29;
42410;PMS5003;28056;51.112;0.984;2023-04-29T01:16:51;33;31;
42410;PMS5003;28056;51.112;0.984;2023-04-29T01:19:27;30;29;
42410;PMS5003;28056;51.112;0.984;2023-04-29T01:22:04;36;27;
42410;PMS5003;28056;51.112;0.984;2023-04-29T01:24:32;32;28;
42410;PMS5003;28056;51.112;0.984;2023-04-29T01:27:02;39;31;
42410;PMS5003;28056;51.112;0.984;2023-04-29T01:29:38;25;25;
42410;PMS5003;28056;51.112;0.984;2023-04-29T01:32:11;38;31;
42410;PMS5003;28056;51.112;0.984;2023-04-29T01:34:46;34;28;
42410;PMS5003;28056;51.112;0.984;2023-04-29T01:37:17;42;35;
42410;PMS5003;28056;51.112;0.984;2023-04-29T01:39:54;34;32;
42410;PMS5003;28056;51.112;0.984;2023-04-29T01:42:33;38;33;
42410;PMS5003;28056;51.112;0.984;2023-04-29T01:45:06;37;32;
42410;PMS5003;28056;51.112;0.984;2023-04-29T01:47:36;37;34;
42410;PMS5003;28056;51.112;0.984;2023-04-29T01:50:05;33;31;
42410;PMS5003;28056;51.112;0.984;2023-04-29T01:52:33;28;24;
42410;PMS5003;28056;51.112;0.984;2023-04-29T01:55:00;30;27;
42410;PMS5003;28056;51.112;0.984;2023-04-29T01:57:27;37;33;
42410;PMS5003;28056;51.112;0.984;2023-04-29T01:59:55;44;28;
42410;PMS5003;28056;51.112;0.984;2023-04-29T02:02:22;36;28;
42410;PMS5003;28056;51.112;0.984;2023-04-29T02:04:49;40;28;
42410;PMS5003;28056;51.112;0.984;2023-04-29T02:07:16;32;27;
42410;PMS5003;28056;51.112;0.984;2023-04-29T02:09:43;33;29;
42410;PMS5003;28056;51.112;0.984;2023-04-29T02:12:11;29;25;
42410;PMS5003;28056;51.112;0.984;2023-04-29T02:14:38;37;30;
42410;PMS5003;28056;51.112;0.984;2023-04-29T02:17:05;37;31;
42410;PMS5003;28056;51.112;0.984;2023-04-29T02:19:32;38;32;
42410;PMS5003;28056;51.112;0.984;2023-04-29T02:21:59;34;29;
42410;PMS5003;28056;51.112;0.984;2023-04-29T02:24:27;33;29;
42410;PMS5003;28056;51.112;0.984;2023-04-29T02:26:54;29;26;
42410;PMS5003;28056;51.112;0.984;2023-04-29T02:29:22;37;26;
42410;PMS5003;28056;51.112;0.984;2023-04-29T02:31:49;28;27;
42410;PMS5003;28056;51.112;0.984;2023-04-29T02:34:40;23;19;
42410;PMS5003;28056;51.112;0.984;2023-04-29T02:37:07;26;24;
42410;PMS5003;28056;51.112;0.984;2023-04-29T02:39:34;31;26;
42410;PMS5003;28056;51.112;0.984;2023-04-29T02:42:02;27;23;
42410;PMS5003;28056;51.112;0.984;2023-04-29T02:44:30;29;28;
42410;PMS5003;28056;51.112;0.984;2023-04-29T02:46:57;29;27;
42410;PMS5003;28056;51.112;0.984;2023-04-29T02:49:25;24;24;
42410;PMS5003;28056;51.112;0.984;2023-04-29T02:51:52;31;24;
42410;PMS5003;28056;51.112;0.984;2023-04-29T02:54:20;32;28;
42410;PMS5003;28056;51.112;0.984;2023-04-29T02:56:47;33;29;
42410;PMS5003;28056;51.112;0.984;2023-04-29T02:59:15;20;20;
42410;PMS5003;28056;51.112;0.984;2023-04-29T03:01:42;40;30;
42410;PMS5003;28056;51.112;0.984;2023-04-29T03:04:10;29;25;
42410;PMS5003;28056;51.112;0.984;2023-04-29T03:06:37;32;27;
42410;PMS5003;28056;51.112;0.984;2023-04-29T03:09:04;32;26;
42410;PMS5003;28056;51.112;0.984;2023-04-29T03:11:32;26;23;
42410;PMS5003;28056;51.112;0.984;2023-04-29T03:13:59;31;26;
42410;PMS5003;28056;51.112;0.984;2023-04-29T03:16:27;22;21;
42410;PMS5003;28056;51.112;0.984;2023-04-29T03:18:55;29;27;
42410;PMS5003;28056;51.112;0.984;2023-04-29T03:21:22;27;23;
42410;PMS5003;28056;51.112;0.984;2023-04-29T03:23:50;23;22;
42410;PMS5003;28056;51.112;0.984;2023-04-29T03:26:17;29;23;
42410;PMS5003;28056;51.112;0.984;2023-04-29T03:28:49;26;23;
42410;PMS5003;28056;51.112;0.984;2023-04-29T03:31:16;23;23;
42410;PMS5003;28056;51.112;0.984;2023-04-29T03:33:44;26;22;
42410;PMS5003;28056;51.112;0.984;2023-04-29T03:36:11;26;22;
42410;PMS5003;28056;51.112;0.984;2023-04-29T03:38:38;27;26;
42410;PMS5003;28056;51.112;0.984;2023-04-29T03:41:05;31;22;
42410;PMS5003;28056;51.112;0.984;2023-04-29T03:43:33;23;18;
42410;PMS5003;28056;51.112;0.984;2023-04-29T03:46:00;24;19;
42410;PMS5003;28056;51.112;0.984;2023-04-29T03:48:27;27;26;
42410;PMS5003;28056;51.112;0.984;2023-04-29T03:50:54;28;27;
42410;PMS5003;28056;51.112;0.984;2023-04-29T03:53:22;31;26;
42410;PMS5003;28056;51.112;0.984;2023-04-29T03:55:50;31;24;
42410;PMS5003;28056;51.112;0.984;2023-04-29T03:58:18;24;23;
42410;PMS5003;28056;51.112;0.984;2023-04-29T04:00:45;34;27;
42410;PMS5003;28056;51.112;0.984;2023-04-29T04:03:13;24;22;
42410;PMS5003;28056;51.112;0.984;2023-04-29T04:05:41;21;18;
42410;PMS5003;28056;51.112;0.984;2023-04-29T04:08:08;26;23;
42410;PMS5003;28056;51.112;0.984;2023-04-29T04:10:36;19;19;
42410;PMS5003;28056;51.112;0.984;2023-04-29T04:13:04;23;19;
42410;PMS5003;28056;51.112;0.984;2023-04-29T04:15:31;21;16;
42410;PMS5003;28056;51.112;0.984;2023-04-29T04:17:58;22;21;
42410;PMS5003;28056;51.112;0.984;2023-04-29T04:20:26;23;23;
42410;PMS5003;28056;51.112;0.984;2023-04-29T04:22:54;24;21;
42410;PMS5003;28056;51.112;0.984;2023-04-29T04:25:21;24;22;
42410;PMS5003;28056;51.112;0.984;2023-04-29T04:27:49;24;21;
42410;PMS5003;28056;51.112;0.984;2023-04-29T04:30:16;28;21;
42410;PMS5003;28056;51.112;0.984;2023-04-29T04:32:44;19;17;
42410;PMS5003;28056;51.112;0.984;2023-04-29T04:35:11;27;24;
42410;PMS5003;28056;51.112;0.984;2023-04-29T04:37:39;21;19;
42410;PMS5003;28056;51.112;0.984;2023-04-29T04:40:07;22;21;
42410;PMS5003;28056;51.112;0.984;2023-04-29T04:42:35;23;22;
42410;PMS5003;28056;51.112;0.984;2023-04-29T04:45:03;22;18;
42410;PMS5003;28056;51.112;0.984;2023-04-29T04:47:31;19;18;
42410;PMS5003;28056;51.112;0.984;2023-04-29T04:49:59;24;19;
42410;PMS5003;28056;51.112;0.984;2023-04-29T04:52:26;22;22;
42410;PMS5003;28056;51.112;0.984;2023-04-29T04:54:54;26;22;
42410;PMS5003;28056;51.112;0.984;2023-04-29T04:57:21;23;23;
42410;PMS5003;28056;51.112;0.984;2023-04-29T04:59:48;23;21;
42410;PMS5003;28056;51.112;0.984;2023-04-29T05:02:16;22;20;
42410;PMS5003;28056;51.112;0.984;2023-04-29T05:04:44;33;28;
42410;PMS5003;28056;51.112;0.984;2023-04-29T05:07:11;27;24;
42410;PMS5003;28056;51.112;0.984;2023-04-29T05:09:39;33;28;
42410;PMS5003;28056;51.112;0.984;2023-04-29T05:12:06;30;28;
42410;PMS5003;28056;51.112;0.984;2023-04-29T05:14:34;28;25;
42410;PMS5003;28056;51.112;0.984;2023-04-29T05:17:02;25;24;
42410;PMS5003;28056;51.112;0.984;2023-04-29T05:19:29;29;25;
42410;PMS5003;28056;51.112;0.984;2023-04-29T05:21:56;30;25;
42410;PMS5003;28056;51.112;0.984;2023-04-29T05:24:24;28;24;
42410;PMS5003;28056;51.112;0.984;2023-04-29T05:26:51;30;25;
42410;PMS5003;28056;51.112;0.984;2023-04-29T05:29:19;28;25;
42410;PMS5003;28056;51.112;0.984;2023-04-29T05:31:46;32;28;
42410;PMS5003;28056;51.112;0.984;2023-04-29T05:34:14;28;25;
42410;PMS5003;28056;51.112;0.984;2023-04-29T05:36:42;23;19;
42410;PMS5003;28056;51.112;0.984;2023-04-29T05:39:10;23;23;
42410;PMS5003;28056;51.112;0.984;2023-04-29T05:41:38;34;27;
42410;PMS5003;28056;51.112;0.984;2023-04-29T05:44:05;23;23;
42410;PMS5003;28056;51.112;0.984;2023-04-29T05:46:32;27;25;
42410;PMS5003;28056;51.112;0.984;2023-04-29T05:48:59;28;24;
42410;PMS5003;28056;51.112;0.984;2023-04-29T05:51:27;20;19;
42410;PMS5003;28056;51.112;0.984;2023-04-29T05:53:54;28;23;
42410;PMS5003;28056;51.112;0.984;2023-04-29T05:56:22;24;18;
42410;PMS5003;28056;51.112;0.984;2023-04-29T05:58:50;25;24;
42410;PMS5003;28056;51.112;0.984;2023-04-29T06:01:17;30;24;
42410;PMS5003;28056;51.112;0.984;2023-04-29T06:03:44;29;25;
42410;PMS5003;28056;51.112;0.984;2023-04-29T06:06:11;25;24;
42410;PMS5003;28056;51.112;0.984;2023-04-29T06:08:39;26;24;
42410;PMS5003;28056;51.112;0.984;2023-04-29T06:11:06;21;20;
42410;PMS5003;28056;51.112;0.984;2023-04-29T06:13:34;28;26;
42410;PMS5003;28056;51.112;0.984;2023-04-29T06:16:01;26;21;
42410;PMS5003;28056;51.112;0.984;2023-04-29T06:18:28;20;20;
42410;PMS5003;28056;51.112;0.984;2023-04-29T06:20:56;30;25;
42410;PMS5003;28056;51.112;0.984;2023-04-29T06:23:23;23;20;
42410;PMS5003;28056;51.112;0.984;2023-04-29T06:25:51;31;28;
42410;PMS5003;28056;51.112;0.984;2023-04-29T06:28:18;29;28;
42410;PMS5003;28056;51.112;0.984;2023-04-29T06:30:46;24;20;
42410;PMS5003;28056;51.112;0.984;2023-04-29T06:33:13;25;25;
42410;PMS5003;28056;51.112;0.984;2023-04-29T06:35:40;28;25;
42410;PMS5003;28056;51.112;0.984;2023-04-29T06:38:07;21;19;
42410;PMS5003;28056;51.112;0.984;2023-04-29T06:40:35;25;20;
42410;PMS5003;28056;51.112;0.984;2023-04-29T06:43:03;21;19;
42410;PMS5003;28056;51.112;0.984;2023-04-29T06:45:30;20;18;
42410;PMS5003;28056;51.112;0.984;2023-04-29T06:47:58;20;18;
42410;PMS5003;28056;51.112;0.984;2023-04-29T06:50:25;22;22;
42410;PMS5003;28056;51.112;0.984;2023-04-29T06:52:53;19;19;
42410;PMS5003;28056;51.112;0.984;2023-04-29T06:55:20;22;19;
42410;PMS5003;28056;51.112;0.984;2023-04-29T06:57:48;25;25;
42410;PMS5003;28056;51.112;0.984;2023-04-29T07:00:15;23;23;
42410;PMS5003;28056;51.112;0.984;2023-04-29T07:02:42;24;20;
42410;PMS5003;28056;51.112;0.984;2023-04-29T07:05:09;25;19;
42410;PMS5003;28056;51.112;0.984;2023-04-29T07:07:37;22;20;
42410;PMS5003;28056;51.112;0.984;2023-04-29T07:10:04;25;21;
42410;PMS5003;28056;51.112;0.984;2023-04-29T07:12:33;20;18;
42410;PMS5003;28056;51.112;0.984;2023-04-29T07:15:00;22;18;
42410;PMS5003;28056;51.112;0.984;2023-04-29T07:17:28;19;16;
42410;PMS5003;28056;51.112;0.984;2023-04-29T07:19:56;17;17;
42410;PMS5003;28056;51.112;0.984;2023-04-29T07:22:23;22;22;
42410;PMS5003;28056;51.112;0.984;2023-04-29T07:24:52;25;19;
42410;PMS5003;28056;51.112;0.984;2023-04-29T07:27:19;26;22;
42410;PMS5003;28056;51.112;0.984;2023-04-29T07:29:46;25;21;
42410;PMS5003;28056;51.112;0.984;2023-04-29T07:32:14;20;17;
42410;PMS5003;28056;51.112;0.984;2023-04-29T07:34:42;22;20;
42410;PMS5003;28056;51.112;0.984;2023-04-29T07:37:09;19;17;
42410;PMS5003;28056;51.112;0.984;2023-04-29T07:39:37;21;17;
42410;PMS5003;28056;51.112;0.984;2023-04-29T07:42:04;19;16;
42410;PMS5003;28056;51.112;0.984;2023-04-29T07:44:32;20;19;
42410;PMS5003;28056;51.112;0.984;2023-04-29T07:46:59;21;17;
42410;PMS5003;28056;51.112;0.984;2023-04-29T07:49:26;17;16;
42410;PMS5003;28056;51.112;0.984;2023-04-29T07:51:53;19;19;
42410;PMS5003;28056;51.112;0.984;2023-04-29T07:54:21;20;17;
42410;PMS5003;28056;51.112;0.984;2023-04-29T07:56:49;23;20;
42410;PMS5003;28056;51.112;0.984;2023-04-29T07:59:16;21;21;
42410;PMS5003;28056;51.112;0.984;2023-04-29T08:01:43;22;20;
42410;PMS5003;28056;51.112;0.984;2023-04-29T08:04:11;20;16;
42410;PMS5003;28056;51.112;0.984;2023-04-29T08:06:38;23;23;
42410;PMS5003;28056;51.112;0.984;2023-04-29T08:09:06;26;17;
42410;PMS5003;28056;51.112;0.984;2023-04-29T08:11:34;17;17;
42410;PMS5003;28056;51.112;0.984;2023-04-29T08:14:01;24;20;
42410;PMS5003;28056;51.112;0.984;2023-04-29T08:16:29;22;18;
42410;PMS5003;28056;51.112;0.984;2023-04-29T08:18:56;28;22;
42410;PMS5003;28056;51.112;0.984;2023-04-29T08:21:23;18;15;
42410;PMS5003;28056;51.112;0.984;2023-04-29T08:23:50;16;16;
42410;PMS5003;28056;51.112;0.984;2023-04-29T08:26:17;20;20;
42410;PMS5003;28056;51.112;0.984;2023-04-29T08:28:45;16;16;
42410;PMS5003;28056;51.112;0.984;2023-04-29T08:31:15;16;16;
42410;PMS5003;28056;51.112;0.984;2023-04-29T08:33:43;18;17;
42410;PMS5003;28056;51.112;0.984;2023-04-29T08:36:11;23;23;
42410;PMS5003;28056;51.112;0.984;2023-04-29T08:38:39;18;18;
42410;PMS5003;28056;51.112;0.984;2023-04-29T08:41:07;21;18;
42410;PMS5003;28056;51.112;0.984;2023-04-29T08:43:34;18;18;
42410;PMS5003;28056;51.112;0.984;2023-04-29T08:46:02;17;13;
42410;PMS5003;28056;51.112;0.984;2023-04-29T08:48:30;16;16;
42410;PMS5003;28056;51.112;0.984;2023-04-29T08:50:59;13;13;
42410;PMS5003;28056;51.112;0.984;2023-04-29T08:53:26;16;16;
42410;PMS5003;28056;51.112;0.984;2023-04-29T08:55:54;14;14;
42410;PMS5003;28056;51.112;0.984;2023-04-29T08:58:27;17;13;
42410;PMS5003;28056;51.112;0.984;2023-04-29T09:00:59;15;13;
42410;PMS5003;28056;51.112;0.984;2023-04-29T09:03:29;14;14;
42410;PMS5003;28056;51.112;0.984;2023-04-29T09:06:00;13;13;
42410;PMS5003;28056;51.112;0.984;2023-04-29T09:08:28;17;15;
42410;PMS5003;28056;51.112;0.984;2023-04-29T09:10:56;16;15;
42410;PMS5003;28056;51.112;0.984;2023-04-29T09:13:24;19;14;
42410;PMS5003;28056;51.112;0.984;2023-04-29T09:15:53;13;12;
42410;PMS5003;28056;51.112;0.984;2023-04-29T09:18:52;14;13;
42410;PMS5003;28056;51.112;0.984;2023-04-29T09:21:20;16;16;
42410;PMS5003;28056;51.112;0.984;2023-04-29T09:23:49;14;14;
42410;PMS5003;28056;51.112;0.984;2023-04-29T09:26:18;14;14;
42410;PMS5003;28056;51.112;0.984;2023-04-29T09:28:45;17;14;
42410;PMS5003;28056;51.112;0.984;2023-04-29T09:31:13;19;17;
42410;PMS5003;28056;51.112;0.984;2023-04-29T09:33:56;15;14;
42410;PMS5003;28056;51.112;0.984;2023-04-29T09:36:41;18;17;
42410;PMS5003;28056;51.112;0.984;2023-04-29T09:39:10;14;14;
42410;PMS5003;28056;51.112;0.984;2023-04-29T09:41:39;17;16;
42410;PMS5003;28056;51.112;0.984;2023-04-29T09:44:08;17;16;
42410;PMS5003;28056;51.112;0.984;2023-04-29T09:46:37;20;18;
42410;PMS5003;28056;51.112;0.984;2023-04-29T09:49:20;20;15;
42410;PMS5003;28056;51.112;0.984;2023-04-29T09:51:53;19;19;
42410;PMS5003;28056;51.112;0.984;2023-04-29T09:54:22;16;15;
42410;PMS5003;28056;51.112;0.984;2023-04-29T09:56:51;16;15;
42410;PMS5003;28056;51.112;0.984;2023-04-29T09:59:18;15;14;
42410;PMS5003;28056;51.112;0.984;2023-04-29T10:01:47;17;15;
42410;PMS5003;28056;51.112;0.984;2023-04-29T10:04:16;18;18;
42410;PMS5003;28056;51.112;0.984;2023-04-29T10:06:47;14;12;
42410;PMS5003;28056;51.112;0.984;2023-04-29T10:09:16;16;14;
42410;PMS5003;28056;51.112;0.984;2023-04-29T10:11:45;22;16;
42410;PMS5003;28056;51.112;0.984;2023-04-29T10:14:14;16;14;
42410;PMS5003;28056;51.112;0.984;2023-04-29T10:16:44;17;15;
42410;PMS5003;28056;51.112;0.984;2023-04-29T10:19:17;20;17;
42410;PMS5003;28056;51.112;0.984;2023-04-29T10:21:50;16;14;
42410;PMS5003;28056;51.112;0.984;2023-04-29T10:24:20;16;13;
42410;PMS5003;28056;51.112;0.984;2023-04-29T10:26:50;16;16;
42410;PMS5003;28056;51.112;0.984;2023-04-29T10:29:18;14;13;
42410;PMS5003;28056;51.112;0.984;2023-04-29T10:31:48;15;14;
42410;PMS5003;28056;51.112;0.984;2023-04-29T10:34:17;14;12;
42410;PMS5003;28056;51.112;0.984;2023-04-29T10:36:45;13;12;
42410;PMS5003;28056;51.112;0.984;2023-04-29T10:39:18;14;14;
42410;PMS5003;28056;51.112;0.984;2023-04-29T10:41:51;16;12;
42410;PMS5003;28056;51.112;0.984;2023-04-29T10:44:20;17;17;
42410;PMS5003;28056;51.112;0.984;2023-04-29T10:46:48;16;10;
42410;PMS5003;28056;51.112;0.984;2023-04-29T10:49:58;14;14;
42410;PMS5003;28056;51.112;0.984;2023-04-29T10:52:28;16;15;
42410;PMS5003;28056;51.112;0.984;2023-04-29T10:55:00;16;14;
42410;PMS5003;28056;51.112;0.984;2023-04-29T10:57:28;16;16;
42410;PMS5003;28056;51.112;0.984;2023-04-29T10:59:56;15;15;
42410;PMS5003;28056;51.112;0.984;2023-04-29T11:02:23;14;14;
42410;PMS5003;28056;51.112;0.984;2023-04-29T11:05:08;14;14;
42410;PMS5003;28056;51.112;0.984;2023-04-29T11:07:37;17;15;
42410;PMS5003;28056;51.112;0.984;2023-04-29T11:10:06;14;13;
42410;PMS5003;28056;51.112;0.984;2023-04-29T11:12:33;13;13;
42410;PMS5003;28056;51.112;0.984;2023-04-29T11:15:01;18;15;
42410;PMS5003;28056;51.112;0.984;2023-04-29T11:17:34;16;15;
42410;PMS5003;28056;51.112;0.984;2023-04-29T11:20:02;16;14;
42410;PMS5003;28056;51.112;0.984;2023-04-29T11:22:30;17;15;
42410;PMS5003;28056;51.112;0.984;2023-04-29T11:24:59;12;12;
42410;PMS5003;28056;51.112;0.984;2023-04-29T11:27:29;17;12;
42410;PMS5003;28056;51.112;0.984;2023-04-29T11:29:58;12;12;
42410;PMS5003;28056;51.112;0.984;2023-04-29T11:32:27;14;14;
42410;PMS5003;28056;51.112;0.984;2023-04-29T11:35:06;15;14;
42410;PMS5003;28056;51.112;0.984;2023-04-29T11:37:34;18;15;
42410;PMS5003;28056;51.112;0.984;2023-04-29T11:40:01;20;18;
42410;PMS5003;28056;51.112;0.984;2023-04-29T11:42:28;16;15;
42410;PMS5003;28056;51.112;0.984;2023-04-29T11:44:56;18;17;
42410;PMS5003;28056;51.112;0.984;2023-04-29T11:47:25;18;15;
42410;PMS5003;28056;51.112;0.984;2023-04-29T11:50:00;17;15;
42410;PMS5003;28056;51.112;0.984;2023-04-29T11:52:29;19;17;
42410;PMS5003;28056;51.112;0.984;2023-04-29T11:54:56;17;14;
42410;PMS5003;28056;51.112;0.984;2023-04-29T11:57:24;16;14;
42410;PMS5003;28056;51.112;0.984;2023-04-29T11:59:52;13;13;
42410;PMS5003;28056;51.112;0.984;2023-04-29T12:02:20;16;14;
42410;PMS5003;28056;51.112;0.984;2023-04-29T12:04:48;13;13;
42410;PMS5003;28056;51.112;0.984;2023-04-29T12:07:15;18;15;
42410;PMS5003;28056;51.112;0.984;2023-04-29T12:09:43;13;13;
42410;PMS5003;28056;51.112;0.984;2023-04-29T12:12:13;19;16;
42410;PMS5003;28056;51.112;0.984;2023-04-29T12:14:40;18;16;
42410;PMS5003;28056;51.112;0.984;2023-04-29T12:17:08;16;15;
42410;PMS5003;28056;51.112;0.984;2023-04-29T12:19:36;23;21;
42410;PMS5003;28056;51.112;0.984;2023-04-29T12:22:05;19;19;
42410;PMS5003;28056;51.112;0.984;2023-04-29T12:24:33;17;17;
42410;PMS5003;28056;51.112;0.984;2023-04-29T12:27:02;22;17;
42410;PMS5003;28056;51.112;0.984;2023-04-29T12:29:34;16;16;
42410;PMS5003;28056;51.112;0.984;2023-04-29T12:32:02;19;15;
42410;PMS5003;28056;51.112;0.984;2023-04-29T12:34:31;19;16;
42410;PMS5003;28056;51.112;0.984;2023-04-29T12:36:58;19;19;
42410;PMS5003;28056;51.112;0.984;2023-04-29T12:39:26;24;24;
42410;PMS5003;28056;51.112;0.984;2023-04-29T12:41:54;14;13;
42410;PMS5003;28056;51.112;0.984;2023-04-29T12:44:23;14;14;
42410;PMS5003;28056;51.112;0.984;2023-04-29T12:46:51;18;15;
42410;PMS5003;28056;51.112;0.984;2023-04-29T12:49:18;21;17;
42410;PMS5003;28056;51.112;0.984;2023-04-29T12:51:45;15;15;
42410;PMS5003;28056;51.112;0.984;2023-04-29T12:54:13;46;42;
42410;PMS5003;28056;51.112;0.984;2023-04-29T12:56:40;15;15;
42410;PMS5003;28056;51.112;0.984;2023-04-29T12:59:07;20;19;
42410;PMS5003;28056;51.112;0.984;2023-04-29T13:01:35;16;16;
42410;PMS5003;28056;51.112;0.984;2023-04-29T13:04:03;15;13;
42410;PMS5003;28056;51.112;0.984;2023-04-29T13:06:31;16;15;
42410;PMS5003;28056;51.112;0.984;2023-04-29T13:08:58;23;19;
42410;PMS5003;28056;51.112;0.984;2023-04-29T13:11:26;17;16;
42410;PMS5003;28056;51.112;0.984;2023-04-29T13:13:53;47;41;
42410;PMS5003;28056;51.112;0.984;2023-04-29T13:16:20;17;17;
42410;PMS5003;28056;51.112;0.984;2023-04-29T13:18:48;17;17;
42410;PMS5003;28056;51.112;0.984;2023-04-29T13:21:16;28;23;
42410;PMS5003;28056;51.112;0.984;2023-04-29T13:23:43;17;16;
42410;PMS5003;28056;51.112;0.984;2023-04-29T13:26:10;21;16;
42410;PMS5003;28056;51.112;0.984;2023-04-29T13:28:38;25;24;
42410;PMS5003;28056;51.112;0.984;2023-04-29T13:31:06;18;17;
42410;PMS5003;28056;51.112;0.984;2023-04-29T13:33:33;20;20;
42410;PMS5003;28056;51.112;0.984;2023-04-29T13:36:00;22;18;
42410;PMS5003;28056;51.112;0.984;2023-04-29T13:38:28;19;19;
42410;PMS5003;28056;51.112;0.984;2023-04-29T13:40:56;17;15;
42410;PMS5003;28056;51.112;0.984;2023-04-29T13:43:24;17;16;
42410;PMS5003;28056;51.112;0.984;2023-04-29T13:45:51;15;15;
42410;PMS5003;28056;51.112;0.984;2023-04-29T13:48:19;19;18;
42410;PMS5003;28056;51.112;0.984;2023-04-29T13:50:46;40;37;
42410;PMS5003;28056;51.112;0.984;2023-04-29T13:53:14;18;15;
42410;PMS5003;28056;51.112;0.984;2023-04-29T13:55:41;19;16;
42410;PMS5003;28056;51.112;0.984;2023-04-29T13:58:09;18;15;
42410;PMS5003;28056;51.112;0.984;2023-04-29T14:00:36;21;19;
42410;PMS5003;28056;51.112;0.984;2023-04-29T14:03:04;18;17;
42410;PMS5003;28056;51.112;0.984;2023-04-29T14:05:31;13;12;
42410;PMS5003;28056;51.112;0.984;2023-04-29T14:07:59;19;17;
42410;PMS5003;28056;51.112;0.984;2023-04-29T14:10:26;21;18;
42410;PMS5003;28056;51.112;0.984;2023-04-29T14:12:53;24;19;
42410;PMS5003;28056;51.112;0.984;2023-04-29T14:15:21;19;17;
42410;PMS5003;28056;51.112;0.984;2023-04-29T14:17:48;21;18;
42410;PMS5003;28056;51.112;0.984;2023-04-29T14:20:16;17;17;
42410;PMS5003;28056;51.112;0.984;2023-04-29T14:22:43;16;14;
42410;PMS5003;28056;51.112;0.984;2023-04-29T14:25:10;20;19;
42410;PMS5003;28056;51.112;0.984;2023-04-29T14:27:38;24;20;
42410;PMS5003;28056;51.112;0.984;2023-04-29T14:30:07;15;15;
42410;PMS5003;28056;51.112;0.984;2023-04-29T14:32:35;18;18;
42410;PMS5003;28056;51.112;0.984;2023-04-29T14:35:02;16;16;
42410;PMS5003;28056;51.112;0.984;2023-04-29T14:37:29;19;18;
42410;PMS5003;28056;51.112;0.984;2023-04-29T14:39:57;22;19;
42410;PMS5003;28056;51.112;0.984;2023-04-29T14:42:24;15;15;
42410;PMS5003;28056;51.112;0.984;2023-04-29T14:44:51;14;14;
42410;PMS5003;28056;51.112;0.984;2023-04-29T14:47:19;19;18;
42410;PMS5003;28056;51.112;0.984;2023-04-29T14:49:46;19;16;
42410;PMS5003;28056;51.112;0.984;2023-04-29T14:52:13;17;17;
42410;PMS5003;28056;51.112;0.984;2023-04-29T14:54:40;21;20;
42410;PMS5003;28056;51.112;0.984;2023-04-29T14:57:08;19;17;
42410;PMS5003;28056;51.112;0.984;2023-04-29T14:59:35;19;18;
42410;PMS5003;28056;51.112;0.984;2023-04-29T15:02:03;18;17;
42410;PMS5003;28056;51.112;0.984;2023-04-29T15:04:30;19;19;
42410;PMS5003;28056;51.112;0.984;2023-04-29T15:06:57;15;15;
42410;PMS5003;28056;51.112;0.984;2023-04-29T15:09:24;18;17;
42410;PMS5003;28056;51.112;0.984;2023-04-29T15:11:52;18;16;
42410;PMS5003;28056;51.112;0.984;2023-04-29T15:14:20;17;16;
42410;PMS5003;28056;51.112;0.984;2023-04-29T15:16:47;22;18;
42410;PMS5003;28056;51.112;0.984;2023-04-29T15:19:14;14;14;
42410;PMS5003;28056;51.112;0.984;2023-04-29T15:21:42;13;12;
42410;PMS5003;28056;51.112;0.984;2023-04-29T15:24:09;17;17;
42410;PMS5003;28056;51.112;0.984;2023-04-29T15:26:37;15;15;
42410;PMS5003;28056;51.112;0.984;2023-04-29T15:29:04;18;15;
42410;PMS5003;28056;51.112;0.984;2023-04-29T15:31:32;17;16;
42410;PMS5003;28056;51.112;0.984;2023-04-29T15:33:59;17;17;
42410;PMS5003;28056;51.112;0.984;2023-04-29T15:36:27;17;17;
42410;PMS5003;28056;51.112;0.984;2023-04-29T15:38:56;19;16;
42410;PMS5003;28056;51.112;0.984;2023-04-29T15:41:23;15;15;
42410;PMS5003;28056;51.112;0.984;2023-04-29T15:43:51;16;16;
42410;PMS5003;28056;51.112;0.984;2023-04-29T15:46:19;17;17;
42410;PMS5003;28056;51.112;0.984;2023-04-29T15:48:46;17;17;
42410;PMS5003;28056;51.112;0.984;2023-04-29T15:51:14;18;17;
42410;PMS5003;28056;51.112;0.984;2023-04-29T15:53:41;18;18;
42410;PMS5003;28056;51.112;0.984;2023-04-29T15:56:08;17;17;
42410;PMS5003;28056;51.112;0.984;2023-04-29T15:58:36;17;17;
42410;PMS5003;28056;51.112;0.984;2023-04-29T16:01:03;19;16;
42410;PMS5003;28056;51.112;0.984;2023-04-29T16:03:30;24;18;
42410;PMS5003;28056;51.112;0.984;2023-04-29T16:05:58;20;18;
42410;PMS5003;28056;51.112;0.984;2023-04-29T16:08:26;19;19;
42410;PMS5003;28056;51.112;0.984;2023-04-29T16:10:53;20;20;
42410;PMS5003;28056;51.112;0.984;2023-04-29T16:13:21;19;17;
42410;PMS5003;28056;51.112;0.984;2023-04-29T16:15:48;19;19;
42410;PMS5003;28056;51.112;0.984;2023-04-29T16:18:16;21;18;
42410;PMS5003;28056;51.112;0.984;2023-04-29T16:20:43;24;22;
42410;PMS5003;28056;51.112;0.984;2023-04-29T16:23:10;19;18;
42410;PMS5003;28056;51.112;0.984;2023-04-29T16:25:39;25;23;
42410;PMS5003;28056;51.112;0.984;2023-04-29T16:28:06;23;22;
42410;PMS5003;28056;51.112;0.984;2023-04-29T16:30:33;25;21;